createdAt,value
2024-02-20T00:01:47.395Z,78035.00
2024-02-20T00:04:18.041Z,78043.00
2024-02-20T00:06:45.223Z,78051.03
2024-02-20T00:09:12.390Z,78027.00
2024-02-20T00:11:39.951Z,78047.03
2024-02-20T00:14:07.125Z,78047.03
2024-02-20T00:16:34.364Z,78035.00
2024-02-20T00:19:01.570Z,78063.03
2024-02-20T00:21:28.836Z,78049.03
2024-02-20T00:23:56.438Z,78049.03
2024-02-20T00:26:23.882Z,78055.03
2024-02-20T00:28:51.981Z,78071.03
2024-02-20T00:31:18.785Z,78075.06
2024-02-20T00:33:46.601Z,78067.03
2024-02-20T00:36:13.600Z,78059.03
2024-02-20T00:38:40.411Z,78073.03
2024-02-20T00:41:08.529Z,78055.03
2024-02-20T00:43:36.090Z,78055.03
2024-02-20T00:46:05.449Z,78065.03
2024-02-20T00:48:33.995Z,78081.06
2024-02-20T00:51:00.906Z,78067.03
2024-02-20T00:53:28.294Z,78085.06
2024-02-20T00:55:55.360Z,78067.03
2024-02-20T00:58:22.303Z,78067.03
2024-02-20T01:00:49.715Z,78057.03
2024-02-20T01:03:16.698Z,78077.06
2024-02-20T01:05:43.771Z,78075.06
2024-02-20T01:08:11.643Z,78077.06
2024-02-20T01:10:39.131Z,78095.06
2024-02-20T01:13:06.272Z,78065.03
2024-02-20T01:15:33.799Z,78077.06
2024-02-20T01:18:02.063Z,78075.06
2024-02-20T01:20:29.189Z,78075.06
2024-02-20T01:22:56.248Z,78071.03
2024-02-20T01:25:23.520Z,78079.06
2024-02-20T01:27:50.535Z,78079.06
2024-02-20T01:30:17.773Z,78083.06
2024-02-20T01:32:45.151Z,78073.03
2024-02-20T01:35:12.339Z,78075.06
2024-02-20T01:37:39.593Z,78075.06
2024-02-20T01:40:09.130Z,78085.06
2024-02-20T01:42:40.104Z,78079.06
2024-02-20T01:45:07.624Z,78099.06
2024-02-20T01:47:34.882Z,78081.06
2024-02-20T01:50:03.102Z,78071.03
2024-02-20T01:52:30.681Z,78079.06
2024-02-20T01:55:01.622Z,78081.06
2024-02-20T01:57:28.814Z,78093.06
2024-02-20T01:59:56.452Z,78083.06
2024-02-20T02:02:24.052Z,78079.06
2024-02-20T02:04:51.351Z,78073.03
2024-02-20T02:07:18.599Z,78077.06
2024-02-20T02:09:46.288Z,78095.06
2024-02-20T02:12:13.631Z,78101.06
2024-02-20T02:14:44.503Z,78081.06
2024-02-20T02:17:11.530Z,78067.03
2024-02-20T02:19:39.126Z,78075.06
2024-02-20T02:22:06.486Z,78099.06
2024-02-20T02:24:37.912Z,78115.09
2024-02-20T02:27:06.037Z,78095.06
2024-02-20T02:29:33.779Z,78103.06
2024-02-20T02:32:01.620Z,78093.06
2024-02-20T02:34:31.959Z,78093.06
2024-02-20T02:36:59.734Z,78105.09
2024-02-20T02:39:27.669Z,78097.06
2024-02-20T02:41:54.631Z,78099.06
2024-02-20T02:44:22.077Z,78099.06
2024-02-20T02:46:49.673Z,78111.09
2024-02-20T02:49:17.029Z,78095.06
2024-02-20T02:51:44.064Z,78105.09
2024-02-20T02:54:11.248Z,78107.09
2024-02-20T02:56:38.132Z,78107.09
2024-02-20T02:59:05.883Z,78107.09
2024-02-20T03:01:33.557Z,78105.09
2024-02-20T03:04:01.388Z,78107.09
2024-02-20T03:06:28.712Z,78119.09
2024-02-20T03:08:56.306Z,78119.09
2024-02-20T03:11:23.303Z,78131.09
2024-02-20T03:13:51.151Z,78111.09
2024-02-20T03:16:18.354Z,78113.09
2024-02-20T03:18:45.853Z,78105.09
2024-02-20T03:21:13.152Z,78111.09
2024-02-20T03:23:41.429Z,78127.09
2024-02-20T03:26:08.997Z,78115.09
2024-02-20T03:28:35.935Z,78123.09
2024-02-20T03:31:03.577Z,78119.09
2024-02-20T03:33:34.815Z,78123.09
2024-02-20T03:36:05.726Z,78139.13
2024-02-20T03:38:32.780Z,78131.09
2024-02-20T03:40:59.988Z,78125.09
2024-02-20T03:43:28.232Z,78123.09
2024-02-20T03:45:56.010Z,78123.09
2024-02-20T03:48:23.351Z,78123.09
2024-02-20T03:50:50.515Z,78127.09
2024-02-20T03:53:18.434Z,78119.09
2024-02-20T03:55:45.762Z,78131.09
2024-02-20T03:58:13.849Z,78127.09
2024-02-20T04:00:41.783Z,78119.09
2024-02-20T04:03:09.103Z,78125.09
2024-02-20T04:05:37.286Z,78127.09
2024-02-20T04:08:05.241Z,78119.09
2024-02-20T04:10:35.225Z,78123.09
2024-02-20T04:13:02.945Z,78115.09
2024-02-20T04:15:30.227Z,78109.09
2024-02-20T04:17:58.015Z,78123.09
2024-02-20T04:20:25.292Z,78123.09
2024-02-20T04:22:52.636Z,78131.09
2024-02-20T04:25:19.921Z,78133.09
2024-02-20T04:27:49.188Z,78123.09
2024-02-20T04:30:16.977Z,78115.09
2024-02-20T04:32:44.451Z,78131.09
2024-02-20T04:35:12.095Z,78121.09
2024-02-20T04:37:39.783Z,78121.09
2024-02-20T04:40:10.603Z,78131.09
2024-02-20T04:42:38.230Z,78123.09
2024-02-20T04:45:06.365Z,78113.09
2024-02-20T04:47:33.687Z,78119.09
2024-02-20T04:50:01.146Z,78139.13
2024-02-20T04:52:29.325Z,78129.09
2024-02-20T04:54:56.798Z,78137.13
2024-02-20T04:57:24.627Z,78135.13
2024-02-20T04:59:51.960Z,78131.09
2024-02-20T05:02:19.208Z,78131.09
2024-02-20T05:04:46.646Z,78127.09
2024-02-20T05:07:15.609Z,78127.09
2024-02-20T05:09:42.715Z,78127.09
2024-02-20T05:12:10.502Z,78123.09
2024-02-20T05:14:37.456Z,78139.13
2024-02-20T05:17:04.424Z,78131.09
2024-02-20T05:19:31.976Z,78135.13
2024-02-20T05:21:59.131Z,78147.13
2024-02-20T05:24:25.922Z,78127.09
2024-02-20T05:26:53.534Z,78127.09
2024-02-20T05:29:20.276Z,78131.09
2024-02-20T05:31:47.558Z,78139.13
2024-02-20T05:34:15.532Z,78131.09
2024-02-20T05:36:42.611Z,78135.13
2024-02-20T05:39:11.431Z,78117.09
2024-02-20T05:41:39.627Z,78107.09
2024-02-20T05:44:07.343Z,78123.09
2024-02-20T05:46:35.405Z,78123.09
2024-02-20T05:49:05.122Z,78109.09
2024-02-20T05:51:33.876Z,78123.09
2024-02-20T05:54:00.884Z,78133.09
2024-02-20T05:56:28.223Z,78133.09
2024-02-20T05:58:54.867Z,78127.09
2024-02-20T06:01:22.564Z,78131.09
2024-02-20T06:03:50.022Z,78143.13
2024-02-20T06:06:17.194Z,78147.13
2024-02-20T06:08:48.862Z,78139.13
2024-02-20T06:11:18.867Z,78143.13
2024-02-20T06:13:46.658Z,78143.13
2024-02-20T06:16:14.450Z,78143.13
2024-02-20T06:18:42.549Z,78151.13
2024-02-20T06:21:10.516Z,78155.13
2024-02-20T06:23:44.186Z,78175.16
2024-02-20T06:26:15.701Z,78163.16
2024-02-20T06:28:43.803Z,78159.13
2024-02-20T06:31:10.907Z,78161.16
2024-02-20T06:33:38.212Z,78167.16
2024-02-20T06:36:06.177Z,78159.13
2024-02-20T06:38:34.017Z,78179.16
2024-02-20T06:41:02.522Z,78179.16
2024-02-20T06:43:30.810Z,78179.16
2024-02-20T06:45:58.866Z,78177.16
2024-02-20T06:48:26.145Z,78163.16
2024-02-20T06:50:54.218Z,78173.16
2024-02-20T06:53:21.378Z,78179.16
2024-02-20T06:55:48.961Z,78163.16
2024-02-20T06:58:16.394Z,78161.16
2024-02-20T07:00:44.189Z,78177.16
2024-02-20T07:03:13.243Z,78159.13
2024-02-20T07:05:41.146Z,78137.13
2024-02-20T07:08:09.185Z,78143.13
2024-02-20T07:10:36.512Z,78147.13
2024-02-20T07:13:04.243Z,78121.09
2024-02-20T07:15:32.452Z,78131.09
2024-02-20T07:17:59.703Z,78149.13
2024-02-20T07:20:28.811Z,78155.13
2024-02-20T07:22:57.195Z,78147.13
2024-02-20T07:25:26.215Z,78139.13
2024-02-20T07:27:53.928Z,78139.13
2024-02-20T07:30:22.393Z,78147.13
2024-02-20T07:32:49.398Z,78131.09
2024-02-20T07:35:19.474Z,78143.13
2024-02-20T07:37:46.910Z,78155.13
2024-02-20T07:40:14.313Z,78163.16
2024-02-20T07:42:41.995Z,78177.16
2024-02-20T07:45:09.464Z,78179.16
2024-02-20T07:47:37.007Z,78163.16
2024-02-20T07:50:06.011Z,78175.16
2024-02-20T07:52:34.335Z,78159.13
2024-02-20T07:55:02.776Z,78083.06
2024-02-20T07:57:33.604Z,78075.06
2024-02-20T08:00:01.266Z,78115.09
2024-02-20T08:02:29.137Z,78147.13
2024-02-20T08:04:56.181Z,78167.16
2024-02-20T08:07:24.058Z,78179.16
2024-02-20T08:09:56.755Z,78159.13
2024-02-20T08:12:25.193Z,78163.16
2024-02-20T08:14:52.136Z,78191.19
2024-02-20T08:17:25.923Z,78195.19
2024-02-20T08:19:53.296Z,78195.19
2024-02-20T08:22:20.491Z,78191.19
2024-02-20T08:24:47.547Z,78183.16
2024-02-20T08:27:15.674Z,78215.19
2024-02-20T08:29:42.764Z,78207.19
2024-02-20T08:32:11.158Z,78213.19
2024-02-20T08:34:38.486Z,78209.19
2024-02-20T08:37:05.564Z,78211.19
2024-02-20T08:39:33.742Z,78183.16
2024-02-20T08:42:01.188Z,78195.19
2024-02-20T08:44:28.856Z,78205.19
2024-02-20T08:46:57.191Z,78219.22
2024-02-20T08:49:25.475Z,78193.19
2024-02-20T08:51:54.077Z,78195.19
2024-02-20T08:54:21.220Z,78183.16
2024-02-20T08:56:48.602Z,78187.16
2024-02-20T08:59:15.754Z,78185.16
2024-02-20T09:01:42.615Z,78199.19
2024-02-20T09:04:13.586Z,78195.19
2024-02-20T09:06:45.858Z,78175.16
2024-02-20T09:09:14.733Z,78191.19
2024-02-20T09:11:41.976Z,78167.16
2024-02-20T09:14:09.608Z,78187.16
2024-02-20T09:16:37.032Z,78199.19
2024-02-20T09:19:04.594Z,78183.16
2024-02-20T09:21:31.648Z,78161.16
2024-02-20T09:23:58.500Z,78151.13
2024-02-20T09:26:26.397Z,78155.13
2024-02-20T09:28:54.423Z,78155.13
2024-02-20T09:31:21.632Z,78147.13
2024-02-20T09:33:52.387Z,78143.13
2024-02-20T09:36:19.581Z,78153.13
2024-02-20T09:38:46.840Z,78139.13
2024-02-20T09:41:23.159Z,78131.09
2024-02-20T09:43:51.187Z,78127.09
2024-02-20T09:46:21.932Z,78143.13
2024-02-20T09:48:50.761Z,78127.09
2024-02-20T09:51:23.329Z,78131.09
2024-02-20T09:53:55.680Z,78135.13
2024-02-20T09:56:25.207Z,78139.13
2024-02-20T09:58:53.112Z,78131.09
2024-02-20T10:01:21.889Z,78123.09
2024-02-20T10:03:52.368Z,78101.06
2024-02-20T10:06:21.395Z,78119.09
2024-02-20T10:08:52.267Z,78127.09
2024-02-20T10:11:19.608Z,78125.09
2024-02-20T10:13:52.800Z,78107.09
2024-02-20T10:16:20.580Z,78119.09
2024-02-20T10:19:00.908Z,78103.06
2024-02-20T10:21:29.136Z,78115.09
2024-02-20T10:24:14.032Z,78145.13
2024-02-20T10:26:47.882Z,78133.09
2024-02-20T10:29:15.561Z,78149.13
2024-02-20T10:31:43.173Z,78143.13
2024-02-20T10:34:14.720Z,78135.13
2024-02-20T10:36:42.261Z,78123.09
2024-02-20T10:39:13.974Z,78131.09
2024-02-20T10:41:41.394Z,78109.09
2024-02-20T10:44:09.356Z,78123.09
2024-02-20T10:46:41.074Z,78127.09
2024-02-20T10:49:21.323Z,78111.09
2024-02-20T10:51:49.824Z,78107.09
2024-02-20T10:54:22.514Z,78111.09
2024-02-20T10:56:51.175Z,78123.09
2024-02-20T10:59:19.183Z,78121.09
2024-02-20T11:01:47.163Z,78111.09
2024-02-20T11:04:15.872Z,78111.09
2024-02-20T11:06:44.606Z,78095.06
2024-02-20T11:09:12.444Z,78099.06
2024-02-20T11:11:40.532Z,78095.06
2024-02-20T11:14:08.586Z,78095.06
2024-02-20T11:16:39.310Z,78099.06
2024-02-20T11:19:09.485Z,78099.06
2024-02-20T11:21:36.614Z,78079.06
2024-02-20T11:24:16.524Z,78087.06
2024-02-20T11:26:51.694Z,78091.06
2024-02-20T11:29:31.140Z,78089.06
2024-02-20T11:32:12.830Z,78083.06
2024-02-20T11:34:40.955Z,78067.03
2024-02-20T11:37:11.201Z,78069.03
2024-02-20T11:39:40.417Z,78077.06
2024-02-20T11:42:08.232Z,78067.03
2024-02-20T11:44:39.153Z,78063.03
2024-02-20T11:47:06.286Z,78067.03
2024-02-20T11:49:35.870Z,78071.03
2024-02-20T11:52:10.073Z,78033.00
2024-02-20T11:54:37.128Z,77966.94
2024-02-20T11:57:04.658Z,77918.88
2024-02-20T11:59:31.999Z,77934.91
2024-02-20T12:01:58.957Z,77918.88
2024-02-20T12:04:30.024Z,77964.94
2024-02-20T12:07:08.527Z,78006.97
2024-02-20T12:09:35.727Z,77984.94
2024-02-20T12:12:03.197Z,77974.94
2024-02-20T12:14:30.154Z,77992.97
2024-02-20T12:17:03.735Z,77988.97
2024-02-20T12:19:32.896Z,78002.97
2024-02-20T12:22:04.686Z,78006.97
2024-02-20T12:24:33.192Z,78004.97
2024-02-20T12:27:01.609Z,78010.97
2024-02-20T12:29:28.544Z,78000.97
2024-02-20T12:31:55.824Z,78006.97
2024-02-20T12:34:26.745Z,77954.91
2024-02-20T12:36:59.732Z,77998.97
2024-02-20T12:39:27.041Z,77972.94
2024-02-20T12:41:54.612Z,77968.94
2024-02-20T12:44:22.206Z,77974.94
2024-02-20T12:46:49.756Z,77970.94
2024-02-20T12:49:17.055Z,77966.94
2024-02-20T12:51:44.682Z,77946.91
2024-02-20T12:54:11.639Z,77966.94
2024-02-20T12:56:38.785Z,77956.94
2024-02-20T12:59:06.713Z,77960.94
2024-02-20T13:01:33.914Z,77970.94
2024-02-20T13:04:04.045Z,77954.91
2024-02-20T13:06:31.160Z,77938.91
2024-02-20T13:08:58.905Z,77946.91
2024-02-20T13:11:27.867Z,77954.91
2024-02-20T13:13:58.338Z,77950.91
2024-02-20T13:16:25.463Z,77938.91
2024-02-20T13:18:53.067Z,77918.88
2024-02-20T13:21:20.286Z,77882.84
2024-02-20T13:23:48.015Z,77866.84
2024-02-20T13:26:15.170Z,77874.84
2024-02-20T13:28:42.418Z,77886.84
2024-02-20T13:31:09.905Z,77880.84
2024-02-20T13:33:37.460Z,77866.84
2024-02-20T13:36:08.636Z,77902.88
2024-02-20T13:38:41.351Z,77906.88
2024-02-20T13:41:08.529Z,77878.84
2024-02-20T13:43:40.445Z,77870.84
2024-02-20T13:46:07.972Z,77898.88
2024-02-20T13:48:35.212Z,77894.84
2024-02-20T13:51:02.988Z,77890.84
2024-02-20T13:53:32.909Z,77890.84
2024-02-20T13:56:00.414Z,77886.84
2024-02-20T13:58:28.928Z,77882.84
2024-02-20T14:00:56.268Z,77874.84
2024-02-20T14:03:25.792Z,77878.84
2024-02-20T14:05:53.726Z,77878.84
2024-02-20T14:08:21.475Z,77878.84
2024-02-20T14:10:49.023Z,77862.81
2024-02-20T14:13:16.262Z,77866.84
2024-02-20T14:15:44.277Z,77904.88
2024-02-20T14:18:11.917Z,77874.84
2024-02-20T14:20:39.761Z,77886.84
2024-02-20T14:23:07.822Z,77874.84
2024-02-20T14:25:35.906Z,77882.84
2024-02-20T14:28:03.617Z,77866.84
2024-02-20T14:30:33.373Z,77878.84
2024-02-20T14:33:05.676Z,77874.84
2024-02-20T14:35:32.704Z,77866.84
2024-02-20T14:38:00.337Z,77862.81
2024-02-20T14:40:27.403Z,77862.81
2024-02-20T14:42:54.295Z,77838.81
2024-02-20T14:45:22.443Z,77830.78
2024-02-20T14:47:52.452Z,77858.81
2024-02-20T14:50:21.117Z,77870.84
2024-02-20T14:52:48.334Z,77850.81
2024-02-20T14:55:17.633Z,77814.78
2024-02-20T14:57:49.097Z,77822.78
2024-02-20T15:00:20.348Z,77808.78
2024-02-20T15:02:48.544Z,77828.78
2024-02-20T15:05:16.331Z,77810.78
2024-02-20T15:07:44.238Z,77810.78
2024-02-20T15:10:16.868Z,77804.78
2024-02-20T15:12:45.856Z,77814.78
2024-02-20T15:15:14.121Z,77788.75
2024-02-20T15:17:43.565Z,77790.75
2024-02-20T15:20:11.781Z,77800.75
2024-02-20T15:22:39.449Z,77808.78
2024-02-20T15:25:12.603Z,77790.75
2024-02-20T15:27:41.062Z,77790.75
2024-02-20T15:30:08.642Z,77794.75
2024-02-20T15:32:36.148Z,77786.75
2024-02-20T15:35:08.074Z,77778.75
2024-02-20T15:37:35.427Z,77778.75
2024-02-20T15:40:02.401Z,77774.75
2024-02-20T15:42:29.910Z,77786.75
2024-02-20T15:44:58.394Z,77802.78
2024-02-20T15:47:25.614Z,77792.75
2024-02-20T15:49:53.870Z,77802.78
2024-02-20T15:52:23.843Z,77782.75
2024-02-20T15:54:52.389Z,77798.75
2024-02-20T15:57:19.915Z,77792.75
2024-02-20T15:59:47.362Z,77814.78
2024-02-20T16:02:14.937Z,77798.75
2024-02-20T16:04:42.563Z,77810.78
2024-02-20T16:07:09.743Z,77802.78
2024-02-20T16:09:37.074Z,77838.81
2024-02-20T16:12:06.262Z,77836.81
2024-02-20T16:14:34.350Z,77850.81
2024-02-20T16:17:02.844Z,77826.78
2024-02-20T16:19:30.205Z,77830.78
2024-02-20T16:21:57.380Z,77824.78
2024-02-20T16:24:24.533Z,77824.78
2024-02-20T16:26:51.362Z,77830.78
2024-02-20T16:29:18.424Z,77848.81
2024-02-20T16:31:51.050Z,77858.81
2024-02-20T16:34:21.038Z,77818.78
2024-02-20T16:36:49.058Z,77850.81
2024-02-20T16:39:16.353Z,77874.84
2024-02-20T16:41:43.325Z,77858.81
2024-02-20T16:44:10.720Z,77856.81
2024-02-20T16:46:37.808Z,77830.78
2024-02-20T16:49:06.287Z,77858.81
2024-02-20T16:51:33.904Z,77860.81
2024-02-20T16:54:04.557Z,77854.81
2024-02-20T16:56:33.479Z,77874.84
2024-02-20T16:59:01.130Z,77882.84
2024-02-20T17:01:29.384Z,77850.81
2024-02-20T17:03:56.681Z,77842.81
2024-02-20T17:06:23.967Z,77828.78
2024-02-20T17:08:52.697Z,77824.78
2024-02-20T17:11:19.660Z,77880.84
2024-02-20T17:13:47.454Z,77868.84
2024-02-20T17:16:14.963Z,77854.81
2024-02-20T17:18:42.419Z,77810.78
2024-02-20T17:21:13.296Z,77774.75
2024-02-20T17:23:40.698Z,77796.75
2024-02-20T17:26:08.885Z,77834.78
2024-02-20T17:28:36.462Z,77826.78
2024-02-20T17:31:05.270Z,77846.81
2024-02-20T17:33:37.233Z,77830.78
2024-02-20T17:36:05.157Z,77802.78
2024-02-20T17:38:32.055Z,77800.75
2024-02-20T17:40:59.126Z,77814.78
2024-02-20T17:43:26.863Z,77840.81
2024-02-20T17:45:54.335Z,77806.78
2024-02-20T17:48:21.442Z,77814.78
2024-02-20T17:50:51.938Z,77798.75
2024-02-20T17:53:19.018Z,77792.75
2024-02-20T17:55:46.252Z,77826.78
2024-02-20T17:58:13.896Z,77810.78
2024-02-20T18:00:40.776Z,77804.78
2024-02-20T18:03:08.231Z,77798.75
2024-02-20T18:05:35.252Z,77794.75
2024-02-20T18:08:02.716Z,77818.78
2024-02-20T18:10:29.811Z,77822.78
2024-02-20T18:12:56.903Z,77830.78
2024-02-20T18:15:24.069Z,77850.81
2024-02-20T18:17:51.304Z,77852.81
2024-02-20T18:20:18.513Z,77898.88
2024-02-20T18:22:45.746Z,77890.84
2024-02-20T18:25:13.024Z,77866.84
2024-02-20T18:27:40.254Z,77894.84
2024-02-20T18:30:10.799Z,77866.84
2024-02-20T18:32:39.493Z,77878.84
2024-02-20T18:35:07.573Z,77896.88
2024-02-20T18:37:34.961Z,77898.88
2024-02-20T18:40:01.746Z,77912.88
2024-02-20T18:42:32.020Z,77910.88
2024-02-20T18:45:00.189Z,77918.88
2024-02-20T18:47:28.141Z,77898.88
2024-02-20T18:49:55.797Z,77878.84
2024-02-20T18:52:23.257Z,77906.88
2024-02-20T18:54:51.303Z,77892.84
2024-02-20T18:57:18.957Z,77874.84
2024-02-20T18:59:45.946Z,77886.84
2024-02-20T19:02:18.776Z,77870.84
2024-02-20T19:04:55.945Z,77850.81
2024-02-20T19:07:24.920Z,77858.81
2024-02-20T19:09:52.039Z,77874.84
2024-02-20T19:12:21.682Z,77854.81
2024-02-20T19:14:49.409Z,77854.81
2024-02-20T19:17:17.653Z,77854.81
2024-02-20T19:19:44.990Z,77858.81
2024-02-20T19:22:12.913Z,77874.84
2024-02-20T19:24:42.214Z,77854.81
2024-02-20T19:27:09.695Z,77860.81
2024-02-20T19:29:37.644Z,77874.84
2024-02-20T19:32:05.536Z,77856.81
2024-02-20T19:34:33.589Z,77854.81
2024-02-20T19:37:00.882Z,77856.81
2024-02-20T19:39:28.677Z,77846.81
2024-02-20T19:41:55.994Z,77854.81
2024-02-20T19:44:25.600Z,77858.81
2024-02-20T19:46:59.938Z,77850.81
2024-02-20T19:49:27.478Z,77858.81
2024-02-20T19:51:54.593Z,77838.81
2024-02-20T19:54:21.372Z,77852.81
2024-02-20T19:56:48.793Z,77824.78
2024-02-20T19:59:15.821Z,77822.78
2024-02-20T20:01:47.060Z,77846.81
2024-02-20T20:04:15.143Z,77838.81
2024-02-20T20:06:45.771Z,77826.78
2024-02-20T20:09:14.789Z,77838.81
2024-02-20T20:11:44.034Z,77850.81
2024-02-20T20:14:12.016Z,77838.81
2024-02-20T20:16:39.572Z,77850.81
2024-02-20T20:19:09.437Z,77838.81
2024-02-20T20:21:37.424Z,77818.78
2024-02-20T20:24:14.514Z,77830.78
2024-02-20T20:26:47.190Z,77846.81
2024-02-20T20:29:15.061Z,77822.78
2024-02-20T20:31:44.256Z,77820.78
2024-02-20T20:34:11.771Z,77822.78
2024-02-20T20:36:44.011Z,77824.78
2024-02-20T20:39:11.067Z,77826.78
2024-02-20T20:41:38.755Z,77826.78
2024-02-20T20:44:06.408Z,77850.81
2024-02-20T20:46:35.202Z,77842.81
2024-02-20T20:49:02.662Z,77838.81
2024-02-20T20:51:30.196Z,77838.81
2024-02-20T20:53:57.213Z,77834.78
2024-02-20T20:56:24.681Z,77890.84
2024-02-20T20:58:51.860Z,77846.81
2024-02-20T21:01:19.043Z,77836.81
2024-02-20T21:03:47.243Z,77822.78
2024-02-20T21:06:16.818Z,77846.81
2024-02-20T21:08:44.157Z,77830.78
2024-02-20T21:11:11.357Z,77846.81
2024-02-20T21:13:39.078Z,77854.81
2024-02-20T21:16:07.816Z,77834.78
2024-02-20T21:18:35.730Z,77830.78
2024-02-20T21:21:08.361Z,77830.78
2024-02-20T21:23:36.062Z,77820.78
2024-02-20T21:26:05.961Z,77826.78
2024-02-20T21:28:38.963Z,77822.78
2024-02-20T21:31:06.829Z,77834.78
2024-02-20T21:33:34.558Z,77814.78
2024-02-20T21:36:05.867Z,77798.75
2024-02-20T21:38:34.270Z,77810.78
2024-02-20T21:41:02.629Z,77798.75
2024-02-20T21:43:30.668Z,77786.75
2024-02-20T21:45:58.551Z,77798.75
2024-02-20T21:48:26.076Z,77806.78
2024-02-20T21:50:53.372Z,77786.75
2024-02-20T21:53:20.924Z,77786.75
2024-02-20T21:55:48.309Z,77786.75
2024-02-20T21:58:15.637Z,77778.75
2024-02-20T22:00:42.722Z,77782.75
2024-02-20T22:03:10.123Z,77784.75
2024-02-20T22:05:38.124Z,77798.75
2024-02-20T22:08:06.559Z,77786.75
2024-02-20T22:10:34.304Z,77794.75
2024-02-20T22:13:01.697Z,77802.78
2024-02-20T22:15:29.169Z,77806.78
2024-02-20T22:17:57.200Z,77814.78
2024-02-20T22:20:24.438Z,77794.75
2024-02-20T22:22:51.723Z,77772.75
2024-02-20T22:25:19.549Z,77762.72
2024-02-20T22:27:47.008Z,77774.75
2024-02-20T22:30:14.636Z,77782.75
2024-02-20T22:32:43.158Z,77778.75
2024-02-20T22:35:10.731Z,77786.75
2024-02-20T22:37:37.646Z,77784.75
2024-02-20T22:40:08.958Z,77766.72
2024-02-20T22:42:36.611Z,77758.72
2024-02-20T22:45:04.434Z,77754.72
2024-02-20T22:47:32.824Z,77746.72
2024-02-20T22:50:00.288Z,77746.72
2024-02-20T22:52:27.837Z,77750.72
2024-02-20T22:54:55.896Z,77754.72
2024-02-20T22:57:24.608Z,77750.72
2024-02-20T22:59:55.758Z,77758.72
2024-02-20T23:02:23.930Z,77738.72
2024-02-20T23:04:51.208Z,77736.69
2024-02-20T23:07:19.086Z,77734.69
2024-02-20T23:09:46.317Z,77750.72
2024-02-20T23:12:14.803Z,77750.72
2024-02-20T23:14:43.815Z,77726.69
2024-02-20T23:17:11.126Z,77726.69
2024-02-20T23:19:40.078Z,77730.69
2024-02-20T23:22:07.123Z,77726.69
2024-02-20T23:24:34.649Z,77736.69
2024-02-20T23:27:01.815Z,77736.69
2024-02-20T23:29:30.088Z,77730.69
2024-02-20T23:31:57.846Z,77726.69
2024-02-20T23:34:25.522Z,77746.72
2024-02-20T23:36:52.540Z,77722.69
2024-02-20T23:39:19.826Z,77722.69
2024-02-20T23:41:46.676Z,77718.69
2024-02-20T23:44:13.660Z,77728.69
2024-02-20T23:46:40.754Z,77722.69
2024-02-20T23:49:08.296Z,77726.69
2024-02-20T23:51:35.937Z,77726.69
2024-02-20T23:54:02.894Z,77712.69
2024-02-20T23:56:30.077Z,77722.69
2024-02-20T23:58:57.750Z,77726.69
